sensor_id;sensor_type;location;lat;lon;timestamp;temperature;humidity
31131;DHT22;20292;50.944;4.034;2022-08-02T00:01:26;22.70;99.90
31131;DHT22;20292;50.944;4.034;2022-08-02T00:03:52;22.60;99.90
31131;DHT22;20292;50.944;4.034;2022-08-02T00:06:17;22.70;99.90
31131;DHT22;20292;50.944;4.034;2022-08-02T00:08:43;22.60;99.90
31131;DHT22;20292;50.944;4.034;2022-08-02T00:11:09;22.60;99.90
31131;DHT22;20292;50.944;4.034;2022-08-02T00:13:35;22.60;99.90
31131;DHT22;20292;50.944;4.034;2022-08-02T00:16:01;22.50;99.90
31131;DHT22;20292;50.944;4.034;2022-08-02T00:18:26;22.40;99.90
31131;DHT22;20292;50.944;4.034;2022-08-02T00:20:52;22.40;99.90
31131;DHT22;20292;50.944;4.034;2022-08-02T00:23:17;22.40;99.90
31131;DHT22;20292;50.944;4.034;2022-08-02T00:25:43;22.30;99.90
31131;DHT22;20292;50.944;4.034;2022-08-02T00:28:09;22.30;99.90
31131;DHT22;20292;50.944;4.034;2022-08-02T00:30:38;22.30;99.90
31131;DHT22;20292;50.944;4.034;2022-08-02T00:33:03;22.30;99.90
31131;DHT22;20292;50.944;4.034;2022-08-02T00:35:30;22.30;99.90
31131;DHT22;20292;50.944;4.034;2022-08-02T00:37:56;22.20;99.90
31131;DHT22;20292;50.944;4.034;2022-08-02T00:40:22;22.20;99.90
31131;DHT22;20292;50.944;4.034;2022-08-02T00:43:00;22.20;99.90
31131;DHT22;20292;50.944;4.034;2022-08-02T00:45:29;22.20;99.90
31131;DHT22;20292;50.944;4.034;2022-08-02T00:47:55;22.20;99.90
31131;DHT22;20292;50.944;4.034;2022-08-02T00:50:20;22.10;99.90
31131;DHT22;20292;50.944;4.034;2022-08-02T00:52:46;22.10;99.90
31131;DHT22;20292;50.944;4.034;2022-08-02T00:55:11;22.10;99.90
31131;DHT22;20292;50.944;4.034;2022-08-02T00:57:37;22.00;99.90
31131;DHT22;20292;50.944;4.034;2022-08-02T01:00:04;22.00;99.90
31131;DHT22;20292;50.944;4.034;2022-08-02T01:02:30;22.10;99.90
31131;DHT22;20292;50.944;4.034;2022-08-02T01:04:56;22.10;99.90
31131;DHT22;20292;50.944;4.034;2022-08-02T01:07:21;22.10;99.90
31131;DHT22;20292;50.944;4.034;2022-08-02T01:09:47;22.00;99.90
31131;DHT22;20292;50.944;4.034;2022-08-02T01:12:13;22.00;99.90
31131;DHT22;20292;50.944;4.034;2022-08-02T01:14:43;22.00;99.90
31131;DHT22;20292;50.944;4.034;2022-08-02T01:25:56;22.20;99.90
31131;DHT22;20292;50.944;4.034;2022-08-02T01:28:48;22.20;99.90
31131;DHT22;20292;50.944;4.034;2022-08-02T01:31:43;22.20;99.90
31131;DHT22;20292;50.944;4.034;2022-08-02T01:36:40;22.40;99.90
31131;DHT22;20292;50.944;4.034;2022-08-02T01:39:12;22.30;99.90
31131;DHT22;20292;50.944;4.034;2022-08-02T01:41:40;22.20;99.90
31131;DHT22;20292;50.944;4.034;2022-08-02T01:44:07;22.20;99.90
31131;DHT22;20292;50.944;4.034;2022-08-02T01:46:38;22.20;99.90
31131;DHT22;20292;50.944;4.034;2022-08-02T01:49:06;22.20;99.90
31131;DHT22;20292;50.944;4.034;2022-08-02T01:51:35;22.20;99.90
31131;DHT22;20292;50.944;4.034;2022-08-02T01:54:24;22.30;99.90
31131;DHT22;20292;50.944;4.034;2022-08-02T01:56:52;22.30;99.90
31131;DHT22;20292;50.944;4.034;2022-08-02T01:59:20;22.30;99.90
31131;DHT22;20292;50.944;4.034;2022-08-02T02:01:48;22.30;99.90
31131;DHT22;20292;50.944;4.034;2022-08-02T02:04:16;22.20;99.90
31131;DHT22;20292;50.944;4.034;2022-08-02T02:06:44;22.20;99.90
31131;DHT22;20292;50.944;4.034;2022-08-02T02:09:11;22.20;99.90
31131;DHT22;20292;50.944;4.034;2022-08-02T02:11:40;22.20;99.90
31131;DHT22;20292;50.944;4.034;2022-08-02T02:14:08;22.20;99.90
31131;DHT22;20292;50.944;4.034;2022-08-02T02:16:36;22.20;99.90
31131;DHT22;20292;50.944;4.034;2022-08-02T02:19:03;22.10;99.90
31131;DHT22;20292;50.944;4.034;2022-08-02T02:21:31;22.10;99.90
31131;DHT22;20292;50.944;4.034;2022-08-02T02:23:57;22.10;99.90
31131;DHT22;20292;50.944;4.034;2022-08-02T02:26:24;22.00;99.90
31131;DHT22;20292;50.944;4.034;2022-08-02T02:28:51;22.00;99.90
31131;DHT22;20292;50.944;4.034;2022-08-02T02:31:19;21.90;99.90
31131;DHT22;20292;50.944;4.034;2022-08-02T02:33:58;22.00;99.90
31131;DHT22;20292;50.944;4.034;2022-08-02T02:36:25;21.90;99.90
31131;DHT22;20292;50.944;4.034;2022-08-02T02:38:51;21.90;99.90
31131;DHT22;20292;50.944;4.034;2022-08-02T02:41:20;21.90;99.90
31131;DHT22;20292;50.944;4.034;2022-08-02T02:43:48;22.00;99.90
31131;DHT22;20292;50.944;4.034;2022-08-02T02:46:15;22.00;99.90
31131;DHT22;20292;50.944;4.034;2022-08-02T02:48:41;22.00;99.90
31131;DHT22;20292;50.944;4.034;2022-08-02T02:51:07;22.00;99.90
31131;DHT22;20292;50.944;4.034;2022-08-02T02:53:35;21.90;99.90
31131;DHT22;20292;50.944;4.034;2022-08-02T02:56:02;21.90;99.90
31131;DHT22;20292;50.944;4.034;2022-08-02T02:58:30;21.80;99.90
31131;DHT22;20292;50.944;4.034;2022-08-02T03:00:55;21.80;99.90
31131;DHT22;20292;50.944;4.034;2022-08-02T03:03:43;21.80;99.90
31131;DHT22;20292;50.944;4.034;2022-08-02T03:06:08;21.80;99.90
31131;DHT22;20292;50.944;4.034;2022-08-02T03:08:34;21.70;99.90
31131;DHT22;20292;50.944;4.034;2022-08-02T03:11:00;21.70;99.90
31131;DHT22;20292;50.944;4.034;2022-08-02T03:13:26;21.70;99.90
31131;DHT22;20292;50.944;4.034;2022-08-02T03:15:51;21.70;99.90
31131;DHT22;20292;50.944;4.034;2022-08-02T03:21:01;21.60;99.90
31131;DHT22;20292;50.944;4.034;2022-08-02T03:23:27;21.50;99.90
31131;DHT22;20292;50.944;4.034;2022-08-02T03:25:52;21.50;99.90
31131;DHT22;20292;50.944;4.034;2022-08-02T03:28:18;21.40;99.90
31131;DHT22;20292;50.944;4.034;2022-08-02T03:30:43;21.40;99.90
31131;DHT22;20292;50.944;4.034;2022-08-02T03:33:09;21.40;99.90
31131;DHT22;20292;50.944;4.034;2022-08-02T03:35:36;21.40;99.90
31131;DHT22;20292;50.944;4.034;2022-08-02T03:38:04;21.40;99.90
31131;DHT22;20292;50.944;4.034;2022-08-02T03:40:30;21.40;99.90
31131;DHT22;20292;50.944;4.034;2022-08-02T03:42:56;21.40;99.90
31131;DHT22;20292;50.944;4.034;2022-08-02T03:45:23;21.40;99.90
31131;DHT22;20292;50.944;4.034;2022-08-02T03:47:49;21.40;99.90
31131;DHT22;20292;50.944;4.034;2022-08-02T03:50:16;21.30;99.90
31131;DHT22;20292;50.944;4.034;2022-08-02T03:52:46;21.30;99.90
31131;DHT22;20292;50.944;4.034;2022-08-02T03:55:12;21.20;99.90
31131;DHT22;20292;50.944;4.034;2022-08-02T03:57:39;21.20;99.90
31131;DHT22;20292;50.944;4.034;2022-08-02T04:00:10;21.10;99.90
31131;DHT22;20292;50.944;4.034;2022-08-02T04:02:37;21.10;99.90
31131;DHT22;20292;50.944;4.034;2022-08-02T04:05:03;21.00;99.90
31131;DHT22;20292;50.944;4.034;2022-08-02T04:07:29;21.00;99.90
31131;DHT22;20292;50.944;4.034;2022-08-02T04:09:54;20.90;99.90
31131;DHT22;20292;50.944;4.034;2022-08-02T04:12:20;20.90;99.90
31131;DHT22;20292;50.944;4.034;2022-08-02T04:14:46;20.80;99.90
31131;DHT22;20292;50.944;4.034;2022-08-02T04:17:12;20.90;99.90
31131;DHT22;20292;50.944;4.034;2022-08-02T04:19:49;20.80;99.90
31131;DHT22;20292;50.944;4.034;2022-08-02T04:22:20;20.80;99.90
31131;DHT22;20292;50.944;4.034;2022-08-02T04:24:50;20.80;99.90
31131;DHT22;20292;50.944;4.034;2022-08-02T04:27:17;20.60;99.90
31131;DHT22;20292;50.944;4.034;2022-08-02T04:29:44;20.60;99.90
31131;DHT22;20292;50.944;4.034;2022-08-02T04:32:11;20.60;99.90
31131;DHT22;20292;50.944;4.034;2022-08-02T04:34:37;20.50;99.90
31131;DHT22;20292;50.944;4.034;2022-08-02T04:37:03;20.50;99.90
31131;DHT22;20292;50.944;4.034;2022-08-02T04:39:29;20.50;99.90
31131;DHT22;20292;50.944;4.034;2022-08-02T04:41:55;20.50;99.90
31131;DHT22;20292;50.944;4.034;2022-08-02T04:44:21;20.50;99.90
31131;DHT22;20292;50.944;4.034;2022-08-02T04:46:46;20.50;99.90
31131;DHT22;20292;50.944;4.034;2022-08-02T04:49:12;20.50;99.90
31131;DHT22;20292;50.944;4.034;2022-08-02T04:51:40;20.50;99.90
31131;DHT22;20292;50.944;4.034;2022-08-02T04:54:07;20.60;99.90
31131;DHT22;20292;50.944;4.034;2022-08-02T04:56:33;20.60;99.90
31131;DHT22;20292;50.944;4.034;2022-08-02T04:58:59;20.80;99.90
31131;DHT22;20292;50.944;4.034;2022-08-02T05:01:25;21.00;99.90
31131;DHT22;20292;50.944;4.034;2022-08-02T05:03:50;21.20;99.90
31131;DHT22;20292;50.944;4.034;2022-08-02T05:06:16;21.60;99.90
31131;DHT22;20292;50.944;4.034;2022-08-02T05:08:44;22.40;99.90
31131;DHT22;20292;50.944;4.034;2022-08-02T05:11:10;23.40;99.90
31131;DHT22;20292;50.944;4.034;2022-08-02T05:13:36;24.10;99.90
31131;DHT22;20292;50.944;4.034;2022-08-02T05:16:01;24.90;99.90
31131;DHT22;20292;50.944;4.034;2022-08-02T05:18:29;25.40;99.90
31131;DHT22;20292;50.944;4.034;2022-08-02T05:20:55;25.40;99.90
31131;DHT22;20292;50.944;4.034;2022-08-02T05:23:23;25.30;99.90
31131;DHT22;20292;50.944;4.034;2022-08-02T05:25:49;25.50;99.90
31131;DHT22;20292;50.944;4.034;2022-08-02T05:28:14;25.70;99.90
31131;DHT22;20292;50.944;4.034;2022-08-02T05:30:40;25.70;99.90
31131;DHT22;20292;50.944;4.034;2022-08-02T05:33:05;25.90;99.90
31131;DHT22;20292;50.944;4.034;2022-08-02T05:35:31;25.90;99.90
31131;DHT22;20292;50.944;4.034;2022-08-02T05:37:57;26.30;99.90
31131;DHT22;20292;50.944;4.034;2022-08-02T05:40:23;26.60;99.90
31131;DHT22;20292;50.944;4.034;2022-08-02T05:42:48;27.10;99.90
31131;DHT22;20292;50.944;4.034;2022-08-02T05:45:14;27.40;99.90
31131;DHT22;20292;50.944;4.034;2022-08-02T05:47:40;27.50;99.90
31131;DHT22;20292;50.944;4.034;2022-08-02T05:50:07;28.00;99.90
31131;DHT22;20292;50.944;4.034;2022-08-02T05:55:17;28.50;99.90
31131;DHT22;20292;50.944;4.034;2022-08-02T05:58:05;28.70;99.90
31131;DHT22;20292;50.944;4.034;2022-08-02T06:00:39;29.10;99.90
31131;DHT22;20292;50.944;4.034;2022-08-02T06:03:12;29.30;99.90
31131;DHT22;20292;50.944;4.034;2022-08-02T06:05:49;29.20;99.90
31131;DHT22;20292;50.944;4.034;2022-08-02T06:08:16;28.80;99.90
31131;DHT22;20292;50.944;4.034;2022-08-02T06:10:45;29.20;99.90
31131;DHT22;20292;50.944;4.034;2022-08-02T06:13:13;29.70;99.90
31131;DHT22;20292;50.944;4.034;2022-08-02T06:15:41;29.70;99.90
31131;DHT22;20292;50.944;4.034;2022-08-02T06:18:08;30.00;99.90
31131;DHT22;20292;50.944;4.034;2022-08-02T06:20:35;30.60;99.90
31131;DHT22;20292;50.944;4.034;2022-08-02T06:23:06;30.80;99.90
31131;DHT22;20292;50.944;4.034;2022-08-02T06:25:34;31.40;99.90
31131;DHT22;20292;50.944;4.034;2022-08-02T06:28:02;31.60;99.90
31131;DHT22;20292;50.944;4.034;2022-08-02T06:30:28;31.80;99.90
31131;DHT22;20292;50.944;4.034;2022-08-02T06:32:54;31.90;99.90
31131;DHT22;20292;50.944;4.034;2022-08-02T06:35:21;32.10;99.80
31131;DHT22;20292;50.944;4.034;2022-08-02T06:37:51;32.40;99.20
31131;DHT22;20292;50.944;4.034;2022-08-02T06:45:11;32.40;97.70
31131;DHT22;20292;50.944;4.034;2022-08-02T06:47:37;32.10;98.10
31131;DHT22;20292;50.944;4.034;2022-08-02T06:50:03;32.60;97.60
31131;DHT22;20292;50.944;4.034;2022-08-02T06:52:28;32.80;96.90
31131;DHT22;20292;50.944;4.034;2022-08-02T06:54:59;32.30;96.90
31131;DHT22;20292;50.944;4.034;2022-08-02T06:57:26;31.90;97.50
31131;DHT22;20292;50.944;4.034;2022-08-02T06:59:52;31.70;97.60
31131;DHT22;20292;50.944;4.034;2022-08-02T07:02:18;32.00;97.60
31131;DHT22;20292;50.944;4.034;2022-08-02T07:04:43;32.10;97.20
31131;DHT22;20292;50.944;4.034;2022-08-02T07:07:09;32.20;96.80
31131;DHT22;20292;50.944;4.034;2022-08-02T07:09:34;32.40;96.40
31131;DHT22;20292;50.944;4.034;2022-08-02T07:12:00;32.50;96.30
31131;DHT22;20292;50.944;4.034;2022-08-02T07:14:26;33.30;95.90
31131;DHT22;20292;50.944;4.034;2022-08-02T07:16:52;33.10;94.70
31131;DHT22;20292;50.944;4.034;2022-08-02T07:19:17;32.90;94.80
31131;DHT22;20292;50.944;4.034;2022-08-02T07:21:43;32.90;95.00
31131;DHT22;20292;50.944;4.034;2022-08-02T07:24:08;33.20;94.70
31131;DHT22;20292;50.944;4.034;2022-08-02T07:26:34;33.40;94.20
31131;DHT22;20292;50.944;4.034;2022-08-02T07:29:00;33.40;94.10
31131;DHT22;20292;50.944;4.034;2022-08-02T07:31:25;33.70;93.50
31131;DHT22;20292;50.944;4.034;2022-08-02T07:33:51;33.50;93.20
31131;DHT22;20292;50.944;4.034;2022-08-02T07:36:17;33.70;93.00
31131;DHT22;20292;50.944;4.034;2022-08-02T07:38:43;33.70;92.80
31131;DHT22;20292;50.944;4.034;2022-08-02T07:41:08;34.60;91.90
31131;DHT22;20292;50.944;4.034;2022-08-02T07:43:34;35.40;91.00
31131;DHT22;20292;50.944;4.034;2022-08-02T07:45:59;35.10;90.00
31131;DHT22;20292;50.944;4.034;2022-08-02T07:48:25;35.20;89.30
31131;DHT22;20292;50.944;4.034;2022-08-02T07:50:51;34.80;89.90
31131;DHT22;20292;50.944;4.034;2022-08-02T07:53:16;34.90;89.30
31131;DHT22;20292;50.944;4.034;2022-08-02T07:55:42;34.80;89.60
31131;DHT22;20292;50.944;4.034;2022-08-02T07:58:08;34.90;87.40
31131;DHT22;20292;50.944;4.034;2022-08-02T08:00:34;35.50;86.30
31131;DHT22;20292;50.944;4.034;2022-08-02T08:03:00;35.80;83.90
31131;DHT22;20292;50.944;4.034;2022-08-02T08:05:26;35.50;83.60
31131;DHT22;20292;50.944;4.034;2022-08-02T08:07:51;35.20;84.40
31131;DHT22;20292;50.944;4.034;2022-08-02T08:10:17;35.20;84.60
31131;DHT22;20292;50.944;4.034;2022-08-02T08:12:42;35.20;85.10
31131;DHT22;20292;50.944;4.034;2022-08-02T08:15:08;35.40;83.90
31131;DHT22;20292;50.944;4.034;2022-08-02T08:17:35;35.80;81.70
31131;DHT22;20292;50.944;4.034;2022-08-02T08:20:01;36.50;80.80
31131;DHT22;20292;50.944;4.034;2022-08-02T08:22:27;36.50;80.10
31131;DHT22;20292;50.944;4.034;2022-08-02T08:24:52;36.00;80.20
31131;DHT22;20292;50.944;4.034;2022-08-02T08:27:18;36.40;78.80
31131;DHT22;20292;50.944;4.034;2022-08-02T08:29:47;36.30;78.50
31131;DHT22;20292;50.944;4.034;2022-08-02T08:32:13;36.30;76.90
31131;DHT22;20292;50.944;4.034;2022-08-02T08:34:38;36.60;75.40
31131;DHT22;20292;50.944;4.034;2022-08-02T08:37:04;36.70;74.10
31131;DHT22;20292;50.944;4.034;2022-08-02T08:39:30;36.50;74.50
31131;DHT22;20292;50.944;4.034;2022-08-02T08:41:56;37.10;73.70
31131;DHT22;20292;50.944;4.034;2022-08-02T08:44:21;36.60;73.00
31131;DHT22;20292;50.944;4.034;2022-08-02T08:46:48;35.60;72.80
31131;DHT22;20292;50.944;4.034;2022-08-02T08:49:19;34.90;74.00
31131;DHT22;20292;50.944;4.034;2022-08-02T08:51:48;34.10;75.40
31131;DHT22;20292;50.944;4.034;2022-08-02T08:54:16;33.60;77.40
31131;DHT22;20292;50.944;4.034;2022-08-02T08:56:43;33.30;78.20
31131;DHT22;20292;50.944;4.034;2022-08-02T08:59:10;34.20;77.20
31131;DHT22;20292;50.944;4.034;2022-08-02T09:01:35;34.20;76.50
31131;DHT22;20292;50.944;4.034;2022-08-02T09:04:01;33.40;77.60
31131;DHT22;20292;50.944;4.034;2022-08-02T09:06:28;32.60;80.00
31131;DHT22;20292;50.944;4.034;2022-08-02T09:08:54;32.00;81.50
31131;DHT22;20292;50.944;4.034;2022-08-02T09:11:23;31.90;82.60
31131;DHT22;20292;50.944;4.034;2022-08-02T09:16:33;31.60;84.70
31131;DHT22;20292;50.944;4.034;2022-08-02T09:19:01;31.50;85.10
31131;DHT22;20292;50.944;4.034;2022-08-02T09:21:40;31.40;85.20
31131;DHT22;20292;50.944;4.034;2022-08-02T09:24:21;31.30;85.80
31131;DHT22;20292;50.944;4.034;2022-08-02T09:26:47;31.30;86.30
31131;DHT22;20292;50.944;4.034;2022-08-02T09:29:14;31.20;85.70
31131;DHT22;20292;50.944;4.034;2022-08-02T09:31:40;31.60;86.10
31131;DHT22;20292;50.944;4.034;2022-08-02T09:34:06;31.80;85.40
31131;DHT22;20292;50.944;4.034;2022-08-02T09:36:43;32.20;84.80
31131;DHT22;20292;50.944;4.034;2022-08-02T09:39:11;32.30;84.20
31131;DHT22;20292;50.944;4.034;2022-08-02T09:41:42;32.10;85.00
31131;DHT22;20292;50.944;4.034;2022-08-02T09:44:10;32.10;84.70
31131;DHT22;20292;50.944;4.034;2022-08-02T09:46:38;32.40;84.10
31131;DHT22;20292;50.944;4.034;2022-08-02T09:49:05;32.30;82.70
31131;DHT22;20292;50.944;4.034;2022-08-02T09:51:35;32.10;82.90
31131;DHT22;20292;50.944;4.034;2022-08-02T09:54:05;31.90;83.70
31131;DHT22;20292;50.944;4.034;2022-08-02T09:59:06;32.40;84.10
31131;DHT22;20292;50.944;4.034;2022-08-02T10:01:33;32.70;83.50
31131;DHT22;20292;50.944;4.034;2022-08-02T10:04:01;33.00;83.30
31131;DHT22;20292;50.944;4.034;2022-08-02T10:06:27;33.10;82.10
31131;DHT22;20292;50.944;4.034;2022-08-02T10:08:54;33.10;82.80
31131;DHT22;20292;50.944;4.034;2022-08-02T10:11:21;32.80;83.90
31131;DHT22;20292;50.944;4.034;2022-08-02T10:13:47;32.60;83.80
31131;DHT22;20292;50.944;4.034;2022-08-02T10:16:15;32.40;81.90
31131;DHT22;20292;50.944;4.034;2022-08-02T10:18:41;32.10;81.70
31131;DHT22;20292;50.944;4.034;2022-08-02T10:24:15;31.60;83.90
31131;DHT22;20292;50.944;4.034;2022-08-02T10:26:45;31.40;84.70
31131;DHT22;20292;50.944;4.034;2022-08-02T10:29:19;31.10;84.10
31131;DHT22;20292;50.944;4.034;2022-08-02T10:31:50;30.90;84.20
31131;DHT22;20292;50.944;4.034;2022-08-02T10:34:22;30.80;84.90
31131;DHT22;20292;50.944;4.034;2022-08-02T10:36:49;30.70;85.60
31131;DHT22;20292;50.944;4.034;2022-08-02T10:39:15;30.50;86.60
31131;DHT22;20292;50.944;4.034;2022-08-02T10:41:43;30.50;88.10
31131;DHT22;20292;50.944;4.034;2022-08-02T10:44:29;30.40;88.10
31131;DHT22;20292;50.944;4.034;2022-08-02T10:49:52;30.40;87.60
31131;DHT22;20292;50.944;4.034;2022-08-02T10:52:20;30.20;87.80
31131;DHT22;20292;50.944;4.034;2022-08-02T10:55:00;30.10;87.80
31131;DHT22;20292;50.944;4.034;2022-08-02T10:57:31;30.20;88.50
31131;DHT22;20292;50.944;4.034;2022-08-02T11:05:05;30.20;86.70
31131;DHT22;20292;50.944;4.034;2022-08-02T11:07:44;30.10;87.40
31131;DHT22;20292;50.944;4.034;2022-08-02T11:13:04;30.10;88.50
31131;DHT22;20292;50.944;4.034;2022-08-02T11:15:47;30.00;89.10
31131;DHT22;20292;50.944;4.034;2022-08-02T11:18:13;30.00;89.80
31131;DHT22;20292;50.944;4.034;2022-08-02T11:20:39;30.10;89.10
31131;DHT22;20292;50.944;4.034;2022-08-02T11:23:33;30.10;88.20
31131;DHT22;20292;50.944;4.034;2022-08-02T11:25:59;30.10;89.10
31131;DHT22;20292;50.944;4.034;2022-08-02T11:28:25;29.90;90.00
31131;DHT22;20292;50.944;4.034;2022-08-02T11:30:58;29.90;90.10
31131;DHT22;20292;50.944;4.034;2022-08-02T11:33:32;29.80;90.30
31131;DHT22;20292;50.944;4.034;2022-08-02T11:36:04;29.70;90.50
31131;DHT22;20292;50.944;4.034;2022-08-02T11:38:30;29.80;90.70
31131;DHT22;20292;50.944;4.034;2022-08-02T11:40:56;29.80;90.90
31131;DHT22;20292;50.944;4.034;2022-08-02T11:43:24;29.80;90.90
31131;DHT22;20292;50.944;4.034;2022-08-02T11:45:53;29.70;91.20
31131;DHT22;20292;50.944;4.034;2022-08-02T11:48:31;29.80;91.50
31131;DHT22;20292;50.944;4.034;2022-08-02T11:51:07;29.80;91.20
31131;DHT22;20292;50.944;4.034;2022-08-02T11:53:47;29.90;91.40
31131;DHT22;20292;50.944;4.034;2022-08-02T11:56:13;29.90;91.20
31131;DHT22;20292;50.944;4.034;2022-08-02T11:58:39;30.00;91.50
31131;DHT22;20292;50.944;4.034;2022-08-02T12:01:05;30.10;91.40
31131;DHT22;20292;50.944;4.034;2022-08-02T12:03:35;30.10;91.70
31131;DHT22;20292;50.944;4.034;2022-08-02T12:06:01;30.20;91.50
31131;DHT22;20292;50.944;4.034;2022-08-02T12:08:29;30.20;91.50
31131;DHT22;20292;50.944;4.034;2022-08-02T12:10:55;30.10;91.60
31131;DHT22;20292;50.944;4.034;2022-08-02T12:13:21;30.20;91.80
31131;DHT22;20292;50.944;4.034;2022-08-02T12:15:47;30.20;91.80
31131;DHT22;20292;50.944;4.034;2022-08-02T12:18:14;30.20;92.00
31131;DHT22;20292;50.944;4.034;2022-08-02T12:21:00;30.40;91.90
31131;DHT22;20292;50.944;4.034;2022-08-02T12:23:26;30.40;91.50
31131;DHT22;20292;50.944;4.034;2022-08-02T12:26:18;30.40;91.60
31131;DHT22;20292;50.944;4.034;2022-08-02T12:28:44;30.40;91.60
31131;DHT22;20292;50.944;4.034;2022-08-02T12:31:11;30.40;92.00
31131;DHT22;20292;50.944;4.034;2022-08-02T12:36:19;30.60;91.90
31131;DHT22;20292;50.944;4.034;2022-08-02T12:38:55;30.50;91.90
31131;DHT22;20292;50.944;4.034;2022-08-02T12:41:22;30.40;92.20
31131;DHT22;20292;50.944;4.034;2022-08-02T12:43:51;30.40;92.10
31131;DHT22;20292;50.944;4.034;2022-08-02T12:46:19;30.30;91.90
31131;DHT22;20292;50.944;4.034;2022-08-02T12:48:46;30.40;92.00
31131;DHT22;20292;50.944;4.034;2022-08-02T12:53:52;30.40;92.20
31131;DHT22;20292;50.944;4.034;2022-08-02T12:56:36;30.40;92.50
31131;DHT22;20292;50.944;4.034;2022-08-02T12:59:03;30.50;92.50
31131;DHT22;20292;50.944;4.034;2022-08-02T13:01:29;30.50;92.70
31131;DHT22;20292;50.944;4.034;2022-08-02T13:03:55;30.50;92.50
31131;DHT22;20292;50.944;4.034;2022-08-02T13:06:21;30.50;92.60
31131;DHT22;20292;50.944;4.034;2022-08-02T13:08:48;30.50;92.50
31131;DHT22;20292;50.944;4.034;2022-08-02T13:11:14;30.60;92.40
31131;DHT22;20292;50.944;4.034;2022-08-02T13:13:40;30.60;92.30
31131;DHT22;20292;50.944;4.034;2022-08-02T13:16:07;30.70;92.30
31131;DHT22;20292;50.944;4.034;2022-08-02T13:18:33;30.70;92.20
31131;DHT22;20292;50.944;4.034;2022-08-02T13:20:59;30.80;92.40
31131;DHT22;20292;50.944;4.034;2022-08-02T13:23:25;31.00;91.90
31131;DHT22;20292;50.944;4.034;2022-08-02T13:25:51;30.90;91.70
31131;DHT22;20292;50.944;4.034;2022-08-02T13:28:19;30.90;92.20
31131;DHT22;20292;50.944;4.034;2022-08-02T13:30:45;31.00;92.10
31131;DHT22;20292;50.944;4.034;2022-08-02T13:33:11;31.00;92.00
31131;DHT22;20292;50.944;4.034;2022-08-02T13:35:37;31.00;92.20
31131;DHT22;20292;50.944;4.034;2022-08-02T13:38:03;31.00;92.40
31131;DHT22;20292;50.944;4.034;2022-08-02T13:40:29;31.00;92.40
31131;DHT22;20292;50.944;4.034;2022-08-02T13:42:54;31.00;92.30
31131;DHT22;20292;50.944;4.034;2022-08-02T13:45:20;30.80;93.00
31131;DHT22;20292;50.944;4.034;2022-08-02T13:47:46;30.60;93.50
31131;DHT22;20292;50.944;4.034;2022-08-02T13:50:12;30.60;93.70
31131;DHT22;20292;50.944;4.034;2022-08-02T13:52:38;30.60;94.10
31131;DHT22;20292;50.944;4.034;2022-08-02T13:55:04;30.80;93.60
31131;DHT22;20292;50.944;4.034;2022-08-02T13:57:29;30.80;93.60
31131;DHT22;20292;50.944;4.034;2022-08-02T13:59:55;30.90;93.50
31131;DHT22;20292;50.944;4.034;2022-08-02T14:02:21;31.00;93.50
31131;DHT22;20292;50.944;4.034;2022-08-02T14:04:47;31.10;93.40
31131;DHT22;20292;50.944;4.034;2022-08-02T14:07:12;31.30;93.60
31131;DHT22;20292;50.944;4.034;2022-08-02T14:09:38;31.20;93.60
31131;DHT22;20292;50.944;4.034;2022-08-02T14:12:04;31.20;93.70
31131;DHT22;20292;50.944;4.034;2022-08-02T14:14:31;31.20;93.60
31131;DHT22;20292;50.944;4.034;2022-08-02T14:16:56;31.30;93.60
31131;DHT22;20292;50.944;4.034;2022-08-02T14:19:23;31.30;93.90
31131;DHT22;20292;50.944;4.034;2022-08-02T14:21:49;31.30;94.20
31131;DHT22;20292;50.944;4.034;2022-08-02T14:24:16;31.40;93.70
31131;DHT22;20292;50.944;4.034;2022-08-02T14:26:42;31.50;93.50
31131;DHT22;20292;50.944;4.034;2022-08-02T14:29:07;31.40;93.50
31131;DHT22;20292;50.944;4.034;2022-08-02T14:31:33;31.30;92.90
31131;DHT22;20292;50.944;4.034;2022-08-02T14:33:58;31.20;93.20
31131;DHT22;20292;50.944;4.034;2022-08-02T14:36:24;31.30;93.60
31131;DHT22;20292;50.944;4.034;2022-08-02T14:38:50;31.40;93.80
31131;DHT22;20292;50.944;4.034;2022-08-02T14:41:15;31.50;93.60
31131;DHT22;20292;50.944;4.034;2022-08-02T14:43:41;31.50;93.50
31131;DHT22;20292;50.944;4.034;2022-08-02T14:46:25;31.50;93.60
31131;DHT22;20292;50.944;4.034;2022-08-02T14:48:51;31.40;93.50
31131;DHT22;20292;50.944;4.034;2022-08-02T14:51:17;31.50;93.70
31131;DHT22;20292;50.944;4.034;2022-08-02T14:53:42;31.60;93.60
31131;DHT22;20292;50.944;4.034;2022-08-02T14:56:08;31.60;93.70
31131;DHT22;20292;50.944;4.034;2022-08-02T14:58:33;31.70;93.40
31131;DHT22;20292;50.944;4.034;2022-08-02T15:00:59;31.80;93.30
31131;DHT22;20292;50.944;4.034;2022-08-02T15:03:25;31.90;93.00
31131;DHT22;20292;50.944;4.034;2022-08-02T15:05:51;31.90;92.60
31131;DHT22;20292;50.944;4.034;2022-08-02T15:08:17;31.90;92.90
31131;DHT22;20292;50.944;4.034;2022-08-02T15:10:42;31.70;93.00
31131;DHT22;20292;50.944;4.034;2022-08-02T15:13:08;31.70;93.20
31131;DHT22;20292;50.944;4.034;2022-08-02T15:15:34;31.70;93.10
31131;DHT22;20292;50.944;4.034;2022-08-02T15:17:59;31.70;93.00
31131;DHT22;20292;50.944;4.034;2022-08-02T15:20:25;31.70;93.00
31131;DHT22;20292;50.944;4.034;2022-08-02T15:22:51;32.00;93.20
31131;DHT22;20292;50.944;4.034;2022-08-02T15:25:17;32.00;93.30
31131;DHT22;20292;50.944;4.034;2022-08-02T15:27:43;32.00;93.20
31131;DHT22;20292;50.944;4.034;2022-08-02T15:30:09;32.00;93.10
31131;DHT22;20292;50.944;4.034;2022-08-02T15:32:35;31.90;93.30
31131;DHT22;20292;50.944;4.034;2022-08-02T15:35:01;31.80;93.50
31131;DHT22;20292;50.944;4.034;2022-08-02T15:37:26;31.80;93.50
31131;DHT22;20292;50.944;4.034;2022-08-02T15:39:52;31.90;93.50
31131;DHT22;20292;50.944;4.034;2022-08-02T15:42:18;31.90;93.40
31131;DHT22;20292;50.944;4.034;2022-08-02T15:44:44;32.00;93.60
31131;DHT22;20292;50.944;4.034;2022-08-02T15:47:10;32.20;93.30
31131;DHT22;20292;50.944;4.034;2022-08-02T15:49:36;32.20;92.80
31131;DHT22;20292;50.944;4.034;2022-08-02T15:52:02;32.20;92.80
31131;DHT22;20292;50.944;4.034;2022-08-02T15:54:27;32.30;92.80
31131;DHT22;20292;50.944;4.034;2022-08-02T15:56:53;32.20;92.90
31131;DHT22;20292;50.944;4.034;2022-08-02T15:59:18;32.20;92.80
31131;DHT22;20292;50.944;4.034;2022-08-02T16:01:44;32.10;93.10
31131;DHT22;20292;50.944;4.034;2022-08-02T16:04:11;31.90;93.20
31131;DHT22;20292;50.944;4.034;2022-08-02T16:06:37;31.80;93.50
31131;DHT22;20292;50.944;4.034;2022-08-02T16:09:03;31.80;93.60
31131;DHT22;20292;50.944;4.034;2022-08-02T16:11:29;31.80;93.60
31131;DHT22;20292;50.944;4.034;2022-08-02T16:13:54;31.90;93.60
31131;DHT22;20292;50.944;4.034;2022-08-02T16:16:39;32.00;93.80
31131;DHT22;20292;50.944;4.034;2022-08-02T16:19:05;31.80;93.90